createdAt,value
2019-02-17T00:02:00.476Z,49.30
2019-02-17T00:04:30.484Z,51.37
2019-02-17T00:07:00.672Z,50.47
2019-02-17T00:09:30.957Z,50.73
2019-02-17T00:12:01.053Z,50.37
2019-02-17T00:14:31.248Z,50.27
2019-02-17T00:17:01.400Z,50.27
2019-02-17T00:19:31.557Z,51.43
2019-02-17T00:22:03.264Z,50.87
2019-02-17T00:24:33.352Z,51.03
2019-02-17T00:27:03.479Z,51.80
2019-02-17T00:29:33.665Z,50.13
2019-02-17T00:32:03.832Z,50.47
2019-02-17T00:34:33.979Z,50.13
2019-02-17T00:37:04.144Z,50.20
2019-02-17T00:39:34.363Z,50.87
2019-02-17T00:42:04.489Z,52.60
2019-02-17T00:44:34.632Z,50.83
2019-02-17T00:47:05.749Z,50.57
2019-02-17T00:49:38.261Z,49.97
2019-02-17T00:52:08.342Z,51.63
2019-02-17T00:54:38.323Z,51.50
2019-02-17T00:57:08.314Z,51.80
2019-02-17T00:59:38.355Z,50.00
2019-02-17T01:02:08.478Z,51.47
2019-02-17T01:04:38.676Z,51.53
2019-02-17T01:07:09.120Z,50.97
2019-02-17T01:09:39.164Z,50.50
2019-02-17T01:12:09.063Z,50.33
2019-02-17T01:14:39.307Z,49.53
2019-02-17T01:17:09.553Z,50.63
2019-02-17T01:19:39.624Z,51.70
2019-02-17T01:22:09.831Z,50.47
2019-02-17T01:24:40.108Z,51.13
2019-02-17T01:27:10.321Z,50.90
2019-02-17T01:29:40.485Z,51.37
2019-02-17T01:32:10.712Z,51.17
2019-02-17T01:34:40.984Z,51.63
2019-02-17T01:37:11.083Z,50.77
2019-02-17T01:39:42.608Z,51.00
2019-02-17T01:42:12.757Z,50.67
2019-02-17T01:44:42.864Z,51.43
2019-02-17T01:47:12.873Z,52.03
2019-02-17T01:49:43.051Z,50.70
2019-02-17T01:52:13.311Z,50.87
2019-02-17T01:54:43.384Z,50.60
2019-02-17T01:57:13.452Z,50.47
2019-02-17T01:59:43.393Z,50.27
2019-02-17T02:02:13.403Z,51.10
2019-02-17T02:04:43.575Z,50.90
2019-02-17T02:07:13.755Z,51.43
2019-02-17T02:09:43.943Z,51.10
2019-02-17T02:12:14.148Z,49.97
2019-02-17T02:14:44.319Z,50.73
2019-02-17T02:17:14.456Z,50.23
2019-02-17T02:19:45.131Z,51.13
2019-02-17T02:22:15.335Z,49.83
2019-02-17T02:24:45.284Z,49.30
2019-02-17T02:27:15.496Z,50.23
2019-02-17T02:29:45.432Z,49.83
2019-02-17T02:32:15.606Z,50.17
2019-02-17T02:34:45.884Z,50.23
2019-02-17T02:37:15.988Z,49.27
2019-02-17T02:39:46.126Z,49.50
2019-02-17T02:42:16.291Z,50.53
2019-02-17T02:44:48.631Z,49.77
2019-02-17T02:47:18.127Z,50.17
2019-02-17T02:49:48.441Z,49.00
2019-02-17T02:52:18.657Z,50.47
2019-02-17T02:54:48.654Z,49.33
2019-02-17T02:57:18.896Z,48.47
2019-02-17T02:59:52.390Z,49.63
2019-02-17T03:02:22.067Z,49.47
2019-02-17T03:04:52.241Z,48.87
2019-02-17T03:07:22.810Z,49.10
2019-02-17T03:09:52.913Z,49.07
2019-02-17T03:12:23.064Z,48.67
2019-02-17T03:14:53.255Z,49.17
2019-02-17T03:17:23.495Z,49.30
2019-02-17T03:19:53.523Z,49.07
2019-02-17T03:22:24.512Z,48.97
2019-02-17T03:24:54.608Z,50.07
2019-02-17T03:27:24.887Z,49.93
2019-02-17T03:30:04.393Z,49.67
2019-02-17T03:32:26.827Z,48.97
2019-02-17T03:34:57.113Z,48.23
2019-02-17T03:37:27.219Z,48.80
2019-02-17T03:39:57.548Z,49.30
2019-02-17T03:42:27.644Z,48.03
2019-02-17T03:44:57.820Z,49.13
2019-02-17T03:47:27.946Z,49.40
2019-02-17T03:49:58.091Z,48.87
2019-02-17T03:52:28.243Z,48.40
2019-02-17T03:54:58.299Z,49.40
2019-02-17T03:57:28.398Z,49.30
2019-02-17T03:59:58.476Z,50.27
2019-02-17T04:02:28.527Z,50.93
2019-02-17T04:04:58.592Z,50.33
2019-02-17T04:07:28.725Z,49.43
2019-02-17T04:09:58.891Z,49.13
2019-02-17T04:12:28.876Z,48.57
2019-02-17T04:14:58.874Z,50.07
2019-02-17T04:17:28.967Z,50.27
2019-02-17T04:19:59.059Z,49.40
2019-02-17T04:22:29.310Z,48.67
2019-02-17T04:24:59.393Z,48.97
2019-02-17T04:27:29.752Z,49.17
2019-02-17T04:30:00.081Z,48.63
2019-02-17T04:32:31.431Z,47.70
2019-02-17T04:35:01.549Z,49.20
2019-02-17T04:37:31.859Z,47.57
2019-02-17T04:40:02.020Z,48.77
2019-02-17T04:42:33.263Z,48.33
2019-02-17T04:45:03.375Z,48.43
2019-02-17T04:47:34.376Z,47.30
2019-02-17T04:50:04.843Z,47.17
2019-02-17T04:52:34.936Z,47.83
2019-02-17T04:55:05.140Z,48.83
2019-02-17T04:57:35.311Z,47.73
2019-02-17T05:00:06.272Z,48.47
2019-02-17T05:02:36.403Z,48.10
2019-02-17T05:05:06.702Z,49.47
2019-02-17T05:07:36.844Z,47.43
2019-02-17T05:10:07.389Z,48.13
2019-02-17T05:12:37.539Z,47.80
2019-02-17T05:15:08.200Z,48.47
2019-02-17T05:17:38.281Z,48.80
2019-02-17T05:20:08.376Z,47.33
2019-02-17T05:22:39.404Z,47.23
2019-02-17T05:25:09.950Z,46.83
2019-02-17T05:27:40.054Z,48.17
2019-02-17T05:30:10.245Z,48.20
2019-02-17T05:32:40.333Z,48.00
2019-02-17T05:35:10.471Z,47.50
2019-02-17T05:37:40.626Z,48.07
2019-02-17T05:40:10.741Z,47.63
2019-02-17T05:42:40.757Z,48.07
2019-02-17T05:45:10.797Z,47.87
2019-02-17T05:47:40.985Z,47.57
2019-02-17T05:50:11.176Z,47.27
2019-02-17T05:52:41.359Z,47.67
2019-02-17T05:55:11.635Z,47.40
2019-02-17T05:57:41.779Z,47.07
2019-02-17T06:00:13.336Z,46.87
2019-02-17T06:02:43.425Z,48.70
2019-02-17T06:05:13.379Z,47.43
2019-02-17T06:07:43.365Z,47.93
2019-02-17T06:10:13.689Z,48.10
2019-02-17T06:12:43.862Z,48.30
2019-02-17T06:15:14.106Z,47.90
2019-02-17T06:17:44.266Z,48.10
2019-02-17T06:20:14.440Z,48.73
2019-02-17T06:22:44.649Z,47.47
2019-02-17T06:25:14.620Z,46.90
2019-02-17T06:27:44.901Z,46.90
2019-02-17T06:30:16.083Z,47.90
2019-02-17T06:32:46.219Z,45.73
2019-02-17T06:35:16.513Z,46.83
2019-02-17T06:37:46.647Z,46.77
2019-02-17T06:40:16.721Z,47.37
2019-02-17T06:42:46.940Z,47.23
2019-02-17T06:45:19.521Z,47.83
2019-02-17T06:47:48.874Z,46.77
2019-02-17T06:50:19.347Z,46.90
2019-02-17T06:52:50.408Z,46.53
2019-02-17T06:55:37.923Z,46.93
2019-02-17T06:58:07.956Z,46.23
2019-02-17T07:00:43.908Z,47.10
2019-02-17T07:03:14.479Z,46.23
2019-02-17T07:06:06.663Z,46.37
2019-02-17T07:08:36.849Z,46.43
2019-02-17T07:11:07.271Z,47.17
2019-02-17T07:13:37.355Z,46.20
2019-02-17T07:16:07.451Z,46.53
2019-02-17T07:18:37.620Z,46.60
2019-02-17T07:21:07.830Z,46.13
2019-02-17T07:23:37.898Z,46.37
2019-02-17T07:26:08.127Z,46.60
2019-02-17T07:28:38.308Z,46.20
2019-02-17T07:31:08.431Z,46.57
2019-02-17T07:33:38.561Z,46.50
2019-02-17T07:36:08.673Z,46.03
2019-02-17T07:38:38.854Z,46.67
2019-02-17T07:41:08.901Z,46.63
2019-02-17T07:43:39.081Z,45.63
2019-02-17T07:46:09.249Z,45.93
2019-02-17T07:48:39.388Z,47.87
2019-02-17T07:51:09.503Z,46.70
2019-02-17T07:53:39.719Z,46.83
2019-02-17T07:56:09.915Z,46.10
2019-02-17T07:58:40.111Z,47.60
2019-02-17T08:01:10.389Z,46.50
2019-02-17T08:03:40.303Z,47.33
2019-02-17T08:06:10.448Z,46.60
2019-02-17T08:08:40.499Z,46.57
2019-02-17T08:11:10.709Z,46.80
2019-02-17T08:13:41.053Z,47.90
2019-02-17T08:16:11.124Z,47.77
2019-02-17T08:18:41.225Z,47.63
2019-02-17T08:21:11.512Z,48.37
2019-02-17T08:23:41.914Z,51.77
2019-02-17T08:26:12.041Z,50.77
2019-02-17T08:28:42.700Z,51.97
2019-02-17T08:31:13.200Z,50.40
2019-02-17T08:33:43.383Z,50.63
2019-02-17T08:36:13.513Z,51.17
2019-02-17T08:38:43.680Z,51.27
2019-02-17T08:41:13.788Z,52.03
2019-02-17T08:43:44.130Z,51.07
2019-02-17T08:46:14.352Z,51.60
2019-02-17T08:48:44.559Z,51.17
2019-02-17T08:51:14.609Z,49.30
2019-02-17T08:53:44.955Z,49.57
2019-02-17T08:56:15.126Z,50.13
2019-02-17T08:58:45.173Z,49.73
2019-02-17T09:01:15.079Z,50.17
2019-02-17T09:03:45.243Z,53.13
2019-02-17T09:06:15.498Z,52.90
2019-02-17T09:08:45.639Z,52.90
2019-02-17T09:11:16.796Z,53.07
2019-02-17T09:13:47.020Z,52.03
2019-02-17T09:16:17.191Z,53.73
2019-02-17T09:18:47.579Z,53.20
2019-02-17T09:21:17.630Z,53.10
2019-02-17T09:23:47.815Z,52.57
2019-02-17T09:26:18.032Z,52.90
2019-02-17T09:28:48.165Z,51.33
2019-02-17T09:31:18.442Z,51.83
2019-02-17T09:33:52.516Z,50.83
2019-02-17T09:36:22.620Z,51.40
2019-02-17T09:38:52.743Z,50.87
2019-02-17T09:41:22.863Z,51.13
2019-02-17T09:43:53.001Z,50.83
2019-02-17T09:46:23.221Z,51.37
2019-02-17T09:48:53.247Z,53.47
2019-02-17T09:51:23.696Z,54.47
2019-02-17T09:53:53.786Z,52.20
2019-02-17T09:56:23.880Z,53.77
2019-02-17T09:58:54.057Z,53.00
2019-02-17T10:01:24.276Z,53.97
2019-02-17T10:03:54.681Z,53.07
2019-02-17T10:06:24.795Z,53.93
2019-02-17T10:08:54.947Z,53.37
2019-02-17T10:11:25.081Z,53.00
2019-02-17T10:13:55.060Z,50.33
2019-02-17T10:16:25.031Z,51.13
2019-02-17T10:18:55.023Z,51.00
2019-02-17T10:21:25.484Z,50.97
2019-02-17T10:23:55.719Z,51.17
2019-02-17T10:26:25.996Z,50.27
2019-02-17T10:28:56.216Z,50.83
2019-02-17T10:31:26.380Z,50.30
2019-02-17T10:33:56.487Z,51.23
2019-02-17T10:36:26.608Z,51.00
2019-02-17T10:38:58.595Z,51.57
2019-02-17T10:41:28.696Z,50.40
2019-02-17T10:43:58.891Z,50.10
2019-02-17T10:46:29.041Z,50.20
2019-02-17T10:48:59.180Z,51.03
2019-02-17T10:51:30.399Z,51.27
2019-02-17T10:54:00.854Z,50.63
2019-02-17T10:56:32.699Z,51.20
2019-02-17T10:59:02.904Z,50.87
2019-02-17T11:01:33.303Z,50.90
2019-02-17T11:04:11.566Z,50.77
2019-02-17T11:06:42.044Z,50.50
2019-02-17T11:09:23.091Z,50.63
2019-02-17T11:11:53.802Z,51.93
2019-02-17T11:14:24.827Z,50.47
2019-02-17T11:16:55.614Z,51.37
2019-02-17T11:19:26.777Z,51.37
2019-02-17T11:21:57.125Z,50.73
2019-02-17T11:24:27.371Z,50.97
2019-02-17T11:26:57.505Z,51.77
2019-02-17T11:29:27.647Z,51.30
2019-02-17T11:31:57.998Z,51.10
2019-02-17T11:34:29.010Z,50.70
2019-02-17T11:36:59.007Z,50.40
2019-02-17T11:39:29.194Z,51.50
2019-02-17T11:41:59.252Z,51.73
2019-02-17T11:44:31.409Z,50.40
2019-02-17T11:47:01.163Z,51.40
2019-02-17T11:49:31.376Z,51.50
2019-02-17T11:52:01.460Z,51.23
2019-02-17T11:54:31.640Z,51.40
2019-02-17T11:57:01.830Z,50.53
2019-02-17T11:59:32.080Z,51.10
2019-02-17T12:02:02.265Z,52.37
2019-02-17T12:04:32.271Z,51.33
2019-02-17T12:07:02.522Z,52.00
2019-02-17T12:09:32.711Z,51.63
2019-02-17T12:12:02.964Z,50.43
2019-02-17T12:14:34.017Z,51.33
2019-02-17T12:17:04.248Z,52.47
2019-02-17T12:19:35.433Z,51.07
2019-02-17T12:22:20.051Z,51.67
2019-02-17T12:25:05.742Z,51.53
2019-02-17T12:27:47.325Z,50.97
2019-02-17T12:30:22.324Z,51.53
2019-02-17T12:32:52.474Z,51.63
2019-02-17T12:35:22.659Z,51.47
2019-02-17T12:37:52.788Z,51.60
2019-02-17T12:40:23.000Z,52.17
2019-02-17T12:42:53.172Z,51.83
2019-02-17T12:45:23.135Z,51.37
2019-02-17T12:47:58.127Z,51.13
2019-02-17T12:50:25.071Z,51.90
2019-02-17T12:52:55.224Z,50.80
2019-02-17T12:55:25.352Z,51.23
2019-02-17T12:57:55.523Z,50.93
2019-02-17T13:00:25.625Z,51.37
2019-02-17T13:02:55.752Z,51.97
2019-02-17T13:05:25.676Z,51.73
2019-02-17T13:07:55.829Z,51.97
2019-02-17T13:10:26.021Z,53.27
2019-02-17T13:12:56.260Z,52.77
2019-02-17T13:15:26.338Z,52.70
2019-02-17T13:17:56.230Z,52.93
2019-02-17T13:20:26.446Z,52.27
2019-02-17T13:22:56.480Z,52.27
2019-02-17T13:25:26.572Z,52.30
2019-02-17T13:27:56.640Z,53.03
2019-02-17T13:30:26.996Z,52.20
2019-02-17T13:32:57.238Z,52.83
2019-02-17T13:35:29.183Z,52.93
2019-02-17T13:37:59.378Z,52.27
2019-02-17T13:40:29.374Z,52.03
2019-02-17T13:42:59.543Z,51.80
2019-02-17T13:45:29.829Z,55.40
2019-02-17T13:48:00.083Z,51.93
2019-02-17T13:50:30.204Z,52.67
2019-02-17T13:53:00.312Z,51.93
2019-02-17T13:55:31.468Z,53.03
2019-02-17T13:58:02.497Z,52.63
2019-02-17T14:00:32.648Z,52.10
2019-02-17T14:03:04.520Z,52.60
2019-02-17T14:05:34.755Z,52.50
2019-02-17T14:08:07.648Z,52.13
2019-02-17T14:10:37.585Z,53.43
2019-02-17T14:13:07.784Z,52.57
2019-02-17T14:15:37.704Z,53.23
2019-02-17T14:18:07.809Z,53.27
2019-02-17T14:20:37.997Z,52.63
2019-02-17T14:23:08.103Z,52.10
2019-02-17T14:25:39.215Z,52.23
2019-02-17T14:28:09.318Z,52.30
2019-02-17T14:30:39.651Z,53.20
2019-02-17T14:33:09.653Z,52.20
2019-02-17T14:35:39.743Z,52.53
2019-02-17T14:38:09.919Z,52.60
2019-02-17T14:40:40.227Z,52.47
2019-02-17T14:43:10.512Z,51.77
2019-02-17T14:45:40.640Z,52.53
2019-02-17T14:48:11.416Z,52.03
2019-02-17T14:50:41.699Z,52.17
2019-02-17T14:53:11.817Z,52.73
2019-02-17T14:55:42.079Z,51.67
2019-02-17T14:58:12.299Z,52.57
2019-02-17T15:00:42.513Z,52.13
2019-02-17T15:03:12.901Z,52.50
2019-02-17T15:05:43.195Z,52.27
2019-02-17T15:08:13.632Z,51.43
2019-02-17T15:10:43.953Z,51.77
2019-02-17T15:13:14.733Z,52.40
2019-02-17T15:15:48.284Z,51.87
2019-02-17T15:18:19.473Z,51.80
2019-02-17T15:20:49.409Z,51.90
2019-02-17T15:23:20.564Z,51.27
2019-02-17T15:25:50.568Z,52.10
2019-02-17T15:28:20.727Z,51.23
2019-02-17T15:30:50.838Z,51.13
2019-02-17T15:33:21.074Z,52.47
2019-02-17T15:35:53.981Z,50.80
2019-02-17T15:38:24.296Z,51.20
2019-02-17T15:40:54.310Z,51.50
2019-02-17T15:43:24.439Z,51.40
2019-02-17T15:45:54.876Z,51.60
2019-02-17T15:48:24.981Z,51.03
2019-02-17T15:50:55.013Z,51.60
2019-02-17T15:53:25.111Z,51.43
2019-02-17T15:55:56.796Z,51.60
2019-02-17T15:58:27.195Z,51.83
2019-02-17T16:00:57.641Z,51.30
2019-02-17T16:03:28.198Z,51.53
2019-02-17T16:05:58.279Z,50.97
2019-02-17T16:08:28.251Z,50.90
2019-02-17T16:10:58.771Z,51.03
2019-02-17T16:13:29.243Z,50.43
2019-02-17T16:15:59.360Z,51.93
2019-02-17T16:18:29.536Z,52.70
2019-02-17T16:20:59.656Z,52.23
2019-02-17T16:23:29.785Z,51.57
2019-02-17T16:25:59.772Z,52.23
2019-02-17T16:28:29.908Z,51.67
2019-02-17T16:31:00.020Z,52.00
2019-02-17T16:33:30.010Z,51.70
2019-02-17T16:36:00.219Z,51.57
2019-02-17T16:38:30.410Z,51.50
2019-02-17T16:41:00.680Z,52.07
2019-02-17T16:43:30.961Z,50.90
2019-02-17T16:46:01.202Z,51.83
2019-02-17T16:48:31.448Z,51.93
2019-02-17T16:51:01.688Z,50.73
2019-02-17T16:53:31.943Z,51.23
2019-02-17T16:56:02.128Z,53.70
2019-02-17T16:58:32.691Z,53.47
2019-02-17T17:01:02.786Z,53.20
2019-02-17T17:03:32.864Z,53.57
2019-02-17T17:06:03.288Z,53.30
2019-02-17T17:08:33.939Z,52.93
2019-02-17T17:11:04.176Z,50.90
2019-02-17T17:13:34.571Z,51.23
2019-02-17T17:16:04.859Z,51.00
2019-02-17T17:18:35.197Z,50.90
2019-02-17T17:21:05.321Z,50.80
2019-02-17T17:23:35.667Z,51.00
2019-02-17T17:26:05.718Z,50.20
2019-02-17T17:28:35.813Z,50.67
2019-02-17T17:31:05.796Z,50.43
2019-02-17T17:33:35.851Z,50.27
2019-02-17T17:36:06.073Z,51.23
2019-02-17T17:38:36.091Z,50.10
2019-02-17T17:41:06.247Z,50.60
2019-02-17T17:43:36.514Z,50.77
2019-02-17T17:46:06.796Z,50.77
2019-02-17T17:48:38.089Z,50.17
2019-02-17T17:51:08.203Z,51.10
2019-02-17T17:53:38.665Z,51.17
2019-02-17T17:56:08.600Z,51.23
2019-02-17T17:58:38.795Z,50.67
2019-02-17T18:01:09.279Z,51.07
2019-02-17T18:03:39.400Z,49.57
2019-02-17T18:06:09.605Z,50.27
2019-02-17T18:08:40.353Z,50.20
2019-02-17T18:11:10.567Z,50.17
2019-02-17T18:13:40.635Z,49.97
2019-02-17T18:16:10.783Z,49.70
2019-02-17T18:18:40.975Z,50.27
2019-02-17T18:21:11.864Z,50.83
2019-02-17T18:23:43.372Z,49.67
2019-02-17T18:26:13.520Z,50.43
2019-02-17T18:28:43.900Z,50.23
2019-02-17T18:31:14.145Z,50.60
2019-02-17T18:33:44.768Z,50.73
2019-02-17T18:36:15.049Z,50.03
2019-02-17T18:38:45.508Z,51.43
2019-02-17T18:41:16.049Z,51.40
2019-02-17T18:43:46.214Z,52.00
2019-02-17T18:46:16.350Z,52.60
2019-02-17T18:48:46.528Z,51.47
2019-02-17T18:51:16.592Z,51.63
2019-02-17T18:53:46.668Z,50.77
2019-02-17T18:56:19.796Z,51.17
2019-02-17T18:58:49.944Z,52.00
2019-02-17T19:01:20.303Z,51.73
2019-02-17T19:03:59.446Z,51.23
2019-02-17T19:06:30.168Z,51.40
2019-02-17T19:09:00.176Z,50.80
2019-02-17T19:11:30.437Z,51.97
2019-02-17T19:14:03.244Z,51.97
2019-02-17T19:16:33.224Z,51.17
2019-02-17T19:19:03.272Z,51.40
2019-02-17T19:21:33.633Z,51.47
2019-02-17T19:24:03.664Z,50.83
2019-02-17T19:26:33.777Z,50.93
2019-02-17T19:29:03.946Z,50.90
2019-02-17T19:31:34.087Z,50.17
2019-02-17T19:34:04.430Z,50.53
2019-02-17T19:36:34.923Z,50.67
2019-02-17T19:39:06.444Z,51.13
2019-02-17T19:41:36.509Z,49.90
2019-02-17T19:44:06.690Z,50.73
2019-02-17T19:46:36.740Z,50.13
2019-02-17T19:49:06.844Z,50.10
2019-02-17T19:51:37.078Z,50.27
2019-02-17T19:54:07.304Z,50.90
2019-02-17T19:56:39.670Z,50.50
2019-02-17T19:59:09.156Z,49.73
2019-02-17T20:01:39.247Z,50.63
2019-02-17T20:04:20.656Z,50.57
2019-02-17T20:06:50.671Z,50.07
2019-02-17T20:09:20.764Z,50.37
2019-02-17T20:11:52.349Z,50.20
2019-02-17T20:14:23.668Z,49.63
2019-02-17T20:16:53.800Z,51.00
2019-02-17T20:19:25.642Z,50.20
2019-02-17T20:21:55.903Z,49.97
2019-02-17T20:24:25.938Z,50.40
2019-02-17T20:26:56.003Z,49.53
2019-02-17T20:29:26.026Z,50.50
2019-02-17T20:31:56.066Z,49.77
2019-02-17T20:34:26.151Z,49.60
2019-02-17T20:36:56.351Z,50.27
2019-02-17T20:39:26.395Z,49.50
2019-02-17T20:41:56.615Z,49.83
2019-02-17T20:44:26.613Z,50.27
2019-02-17T20:46:56.708Z,49.93
2019-02-17T20:49:27.463Z,49.83
2019-02-17T20:51:57.758Z,48.97
2019-02-17T20:54:28.498Z,50.20
2019-02-17T20:56:59.301Z,49.53
2019-02-17T20:59:29.616Z,50.83
2019-02-17T21:02:00.499Z,49.27
2019-02-17T21:04:31.437Z,49.80
2019-02-17T21:07:01.522Z,49.57
2019-02-17T21:09:32.329Z,50.07
2019-02-17T21:12:03.084Z,50.07
2019-02-17T21:14:33.786Z,49.73
2019-02-17T21:17:04.933Z,51.77
2019-02-17T21:19:35.452Z,51.67
2019-02-17T21:22:06.779Z,51.43
2019-02-17T21:24:37.602Z,51.50
2019-02-17T21:27:08.175Z,53.50
2019-02-17T21:29:39.099Z,51.90
2019-02-17T21:32:09.845Z,53.23
2019-02-17T21:34:40.624Z,51.40
2019-02-17T21:37:10.871Z,52.93
2019-02-17T21:39:41.151Z,51.00
2019-02-17T21:42:11.331Z,49.47
2019-02-17T21:44:41.440Z,49.50
2019-02-17T21:47:11.576Z,50.87
2019-02-17T21:49:41.753Z,49.17
2019-02-17T21:52:11.832Z,51.60
2019-02-17T21:54:42.007Z,48.93
2019-02-17T21:57:11.995Z,51.40
2019-02-17T21:59:42.318Z,49.37
2019-02-17T22:02:13.360Z,49.03
2019-02-17T22:04:43.414Z,49.60
2019-02-17T22:07:13.628Z,50.23
2019-02-17T22:09:43.696Z,48.80
2019-02-17T22:12:13.946Z,48.77
2019-02-17T22:14:45.078Z,48.77
2019-02-17T22:17:15.209Z,49.23
2019-02-17T22:19:45.470Z,48.20
2019-02-17T22:22:15.621Z,49.43
2019-02-17T22:24:45.771Z,48.90
2019-02-17T22:27:15.895Z,48.77
2019-02-17T22:29:46.020Z,48.33
2019-02-17T22:32:16.053Z,48.40
2019-02-17T22:34:46.040Z,48.73
2019-02-17T22:37:16.103Z,49.10
2019-02-17T22:39:46.100Z,48.03
2019-02-17T22:42:16.171Z,48.10
2019-02-17T22:44:46.186Z,48.40
2019-02-17T22:47:16.183Z,48.70
2019-02-17T22:49:46.319Z,48.73
2019-02-17T22:52:16.629Z,48.80
2019-02-17T22:54:46.752Z,48.97
2019-02-17T22:57:16.846Z,48.53
2019-02-17T22:59:46.815Z,48.67
2019-02-17T23:02:16.921Z,48.27
2019-02-17T23:04:47.157Z,48.27
2019-02-17T23:07:17.397Z,48.07
2019-02-17T23:09:47.574Z,48.47
2019-02-17T23:12:17.743Z,48.47
2019-02-17T23:14:47.660Z,48.90
2019-02-17T23:17:17.758Z,48.50
2019-02-17T23:19:47.847Z,48.57
2019-02-17T23:22:17.875Z,48.93
2019-02-17T23:24:48.504Z,48.93
2019-02-17T23:27:18.634Z,48.83
2019-02-17T23:29:48.855Z,48.73
2019-02-17T23:32:18.967Z,48.43
2019-02-17T23:34:48.936Z,48.07
2019-02-17T23:37:19.012Z,49.23
2019-02-17T23:39:49.098Z,48.00
2019-02-17T23:42:19.208Z,49.03
2019-02-17T23:44:51.007Z,48.50
2019-02-17T23:47:22.884Z,48.93
2019-02-17T23:49:53.123Z,48.17
2019-02-17T23:52:23.244Z,48.97
2019-02-17T23:54:53.468Z,48.70
2019-02-17T23:57:23.714Z,49.20
2019-02-17T23:59:53.882Z,48.43
